sensor_id;sensor_type;location;lat;lon;timestamp;P1;durP1;ratioP1;P2;durP2;ratioP2
25868;SDS011;13688;53.154;18.136;2024-03-02T00:01:42;91.82;;;52.40;;
25868;SDS011;13688;53.154;18.136;2024-03-02T00:07:04;87.27;;;51.30;;
25868;SDS011;13688;53.154;18.136;2024-03-02T00:12:29;93.10;;;51.43;;
25868;SDS011;13688;53.154;18.136;2024-03-02T00:17:53;83.82;;;50.38;;
25868;SDS011;13688;53.154;18.136;2024-03-02T00:23:16;84.13;;;50.65;;
25868;SDS011;13688;53.154;18.136;2024-03-02T00:28:43;91.30;;;50.10;;
25868;SDS011;13688;53.154;18.136;2024-03-02T00:34:07;87.45;;;50.17;;
25868;SDS011;13688;53.154;18.136;2024-03-02T00:39:30;86.85;;;50.10;;
25868;SDS011;13688;53.154;18.136;2024-03-02T00:44:52;83.20;;;49.58;;
25868;SDS011;13688;53.154;18.136;2024-03-02T00:50:17;89.30;;;50.30;;
25868;SDS011;13688;53.154;18.136;2024-03-02T00:55:40;82.65;;;46.92;;
25868;SDS011;13688;53.154;18.136;2024-03-02T01:01:04;82.85;;;49.08;;
25868;SDS011;13688;53.154;18.136;2024-03-02T01:06:27;81.87;;;48.23;;
25868;SDS011;13688;53.154;18.136;2024-03-02T01:11:50;76.00;;;46.83;;
25868;SDS011;13688;53.154;18.136;2024-03-02T01:17:12;82.08;;;48.65;;
25868;SDS011;13688;53.154;18.136;2024-03-02T01:22:35;77.08;;;44.33;;
25868;SDS011;13688;53.154;18.136;2024-03-02T01:27:57;75.83;;;44.20;;
25868;SDS011;13688;53.154;18.136;2024-03-02T01:33:20;70.75;;;42.48;;
25868;SDS011;13688;53.154;18.136;2024-03-02T01:38:43;72.42;;;42.53;;
25868;SDS011;13688;53.154;18.136;2024-03-02T01:44:05;71.47;;;42.33;;
25868;SDS011;13688;53.154;18.136;2024-03-02T01:49:28;70.25;;;42.13;;
25868;SDS011;13688;53.154;18.136;2024-03-02T01:54:50;68.35;;;38.80;;
25868;SDS011;13688;53.154;18.136;2024-03-02T02:00:13;68.37;;;39.48;;
25868;SDS011;13688;53.154;18.136;2024-03-02T02:05:36;64.60;;;39.03;;
25868;SDS011;13688;53.154;18.136;2024-03-02T02:10:59;65.57;;;38.83;;
25868;SDS011;13688;53.154;18.136;2024-03-02T02:16:24;62.15;;;37.78;;
25868;SDS011;13688;53.154;18.136;2024-03-02T02:21:46;61.83;;;37.58;;
25868;SDS011;13688;53.154;18.136;2024-03-02T02:27:09;61.30;;;35.90;;
25868;SDS011;13688;53.154;18.136;2024-03-02T02:32:32;59.17;;;36.23;;
25868;SDS011;13688;53.154;18.136;2024-03-02T02:37:54;62.33;;;36.63;;
25868;SDS011;13688;53.154;18.136;2024-03-02T02:43:18;62.65;;;35.88;;
25868;SDS011;13688;53.154;18.136;2024-03-02T02:48:40;56.25;;;34.53;;
25868;SDS011;13688;53.154;18.136;2024-03-02T02:54:03;57.08;;;33.67;;
25868;SDS011;13688;53.154;18.136;2024-03-02T02:59:25;52.20;;;31.42;;
25868;SDS011;13688;53.154;18.136;2024-03-02T03:04:48;54.63;;;32.85;;
25868;SDS011;13688;53.154;18.136;2024-03-02T03:10:11;49.00;;;30.32;;
25868;SDS011;13688;53.154;18.136;2024-03-02T03:15:34;49.55;;;31.48;;
25868;SDS011;13688;53.154;18.136;2024-03-02T03:20:57;49.38;;;30.08;;
25868;SDS011;13688;53.154;18.136;2024-03-02T03:26:19;48.70;;;29.37;;
25868;SDS011;13688;53.154;18.136;2024-03-02T03:31:42;46.10;;;28.60;;
25868;SDS011;13688;53.154;18.136;2024-03-02T03:37:04;46.00;;;28.40;;
25868;SDS011;13688;53.154;18.136;2024-03-02T03:42:29;45.30;;;27.47;;
25868;SDS011;13688;53.154;18.136;2024-03-02T03:47:53;45.80;;;27.47;;
25868;SDS011;13688;53.154;18.136;2024-03-02T03:53:16;42.13;;;26.40;;
25868;SDS011;13688;53.154;18.136;2024-03-02T03:58:38;39.92;;;24.25;;
25868;SDS011;13688;53.154;18.136;2024-03-02T04:04:03;40.73;;;25.50;;
25868;SDS011;13688;53.154;18.136;2024-03-02T04:09:26;41.33;;;25.37;;
25868;SDS011;13688;53.154;18.136;2024-03-02T04:14:48;39.70;;;24.72;;
25868;SDS011;13688;53.154;18.136;2024-03-02T04:20:11;41.77;;;26.12;;
25868;SDS011;13688;53.154;18.136;2024-03-02T04:25:33;40.12;;;24.20;;
25868;SDS011;13688;53.154;18.136;2024-03-02T04:30:56;38.60;;;24.00;;
25868;SDS011;13688;53.154;18.136;2024-03-02T04:36:18;40.92;;;24.23;;
25868;SDS011;13688;53.154;18.136;2024-03-02T04:41:41;37.33;;;24.10;;
25868;SDS011;13688;53.154;18.136;2024-03-02T04:47:04;42.73;;;25.43;;
25868;SDS011;13688;53.154;18.136;2024-03-02T04:52:26;38.70;;;24.82;;
25868;SDS011;13688;53.154;18.136;2024-03-02T04:57:49;39.58;;;25.23;;
25868;SDS011;13688;53.154;18.136;2024-03-02T05:03:11;41.08;;;25.80;;
25868;SDS011;13688;53.154;18.136;2024-03-02T05:08:34;40.03;;;25.10;;
25868;SDS011;13688;53.154;18.136;2024-03-02T05:13:56;39.63;;;25.05;;
25868;SDS011;13688;53.154;18.136;2024-03-02T05:19:22;41.88;;;24.92;;
25868;SDS011;13688;53.154;18.136;2024-03-02T05:24:45;42.20;;;26.48;;
25868;SDS011;13688;53.154;18.136;2024-03-02T05:30:08;38.33;;;24.67;;
25868;SDS011;13688;53.154;18.136;2024-03-02T05:35:30;35.80;;;24.87;;
25868;SDS011;13688;53.154;18.136;2024-03-02T05:40:54;39.40;;;25.25;;
25868;SDS011;13688;53.154;18.136;2024-03-02T05:46:17;36.13;;;24.65;;
25868;SDS011;13688;53.154;18.136;2024-03-02T05:51:41;38.98;;;25.40;;
25868;SDS011;13688;53.154;18.136;2024-03-02T05:57:04;40.25;;;25.00;;
25868;SDS011;13688;53.154;18.136;2024-03-02T06:02:46;38.90;;;25.33;;
25868;SDS011;13688;53.154;18.136;2024-03-02T06:08:09;40.43;;;25.90;;
25868;SDS011;13688;53.154;18.136;2024-03-02T06:13:32;38.23;;;25.00;;
25868;SDS011;13688;53.154;18.136;2024-03-02T06:18:55;38.87;;;25.73;;
25868;SDS011;13688;53.154;18.136;2024-03-02T06:24:18;43.03;;;26.30;;
25868;SDS011;13688;53.154;18.136;2024-03-02T06:29:41;43.07;;;26.77;;
25868;SDS011;13688;53.154;18.136;2024-03-02T06:35:04;41.77;;;27.23;;
25868;SDS011;13688;53.154;18.136;2024-03-02T06:40:27;40.93;;;26.80;;
25868;SDS011;13688;53.154;18.136;2024-03-02T06:45:49;40.87;;;27.20;;
25868;SDS011;13688;53.154;18.136;2024-03-02T06:51:13;39.70;;;26.13;;
25868;SDS011;13688;53.154;18.136;2024-03-02T06:56:35;39.83;;;26.50;;
25868;SDS011;13688;53.154;18.136;2024-03-02T07:01:58;39.67;;;26.05;;
25868;SDS011;13688;53.154;18.136;2024-03-02T07:07:20;40.70;;;27.23;;
25868;SDS011;13688;53.154;18.136;2024-03-02T07:12:43;42.83;;;27.48;;
25868;SDS011;13688;53.154;18.136;2024-03-02T07:18:05;40.23;;;26.85;;
25868;SDS011;13688;53.154;18.136;2024-03-02T07:23:28;44.53;;;27.17;;
25868;SDS011;13688;53.154;18.136;2024-03-02T07:28:50;39.70;;;27.13;;
25868;SDS011;13688;53.154;18.136;2024-03-02T07:34:13;43.95;;;27.62;;
25868;SDS011;13688;53.154;18.136;2024-03-02T07:39:36;38.50;;;27.05;;
25868;SDS011;13688;53.154;18.136;2024-03-02T07:45:00;41.25;;;27.82;;
25868;SDS011;13688;53.154;18.136;2024-03-02T07:50:23;43.25;;;27.90;;
25868;SDS011;13688;53.154;18.136;2024-03-02T07:55:46;40.35;;;26.52;;
25868;SDS011;13688;53.154;18.136;2024-03-02T08:01:10;41.37;;;27.27;;
25868;SDS011;13688;53.154;18.136;2024-03-02T08:06:36;40.63;;;26.73;;
25868;SDS011;13688;53.154;18.136;2024-03-02T08:11:59;44.10;;;27.45;;
25868;SDS011;13688;53.154;18.136;2024-03-02T08:17:23;43.35;;;26.87;;
25868;SDS011;13688;53.154;18.136;2024-03-02T08:22:58;40.40;;;26.17;;
25868;SDS011;13688;53.154;18.136;2024-03-02T08:28:21;42.63;;;27.27;;
25868;SDS011;13688;53.154;18.136;2024-03-02T08:34:01;46.93;;;29.30;;
25868;SDS011;13688;53.154;18.136;2024-03-02T08:39:24;40.17;;;26.93;;
25868;SDS011;13688;53.154;18.136;2024-03-02T08:44:48;38.53;;;26.53;;
25868;SDS011;13688;53.154;18.136;2024-03-02T08:50:10;42.03;;;26.30;;
25868;SDS011;13688;53.154;18.136;2024-03-02T08:55:33;41.50;;;27.43;;
25868;SDS011;13688;53.154;18.136;2024-03-02T09:00:56;41.30;;;26.00;;
25868;SDS011;13688;53.154;18.136;2024-03-02T09:06:18;38.03;;;24.60;;
25868;SDS011;13688;53.154;18.136;2024-03-02T09:11:41;37.33;;;24.40;;
25868;SDS011;13688;53.154;18.136;2024-03-02T09:17:03;38.53;;;26.30;;
25868;SDS011;13688;53.154;18.136;2024-03-02T09:22:26;40.10;;;26.33;;
25868;SDS011;13688;53.154;18.136;2024-03-02T09:27:50;43.20;;;26.62;;
25868;SDS011;13688;53.154;18.136;2024-03-02T09:33:13;36.93;;;25.20;;
25868;SDS011;13688;53.154;18.136;2024-03-02T09:38:36;40.17;;;25.62;;
25868;SDS011;13688;53.154;18.136;2024-03-02T09:43:58;37.10;;;25.97;;
25868;SDS011;13688;53.154;18.136;2024-03-02T09:49:22;38.67;;;25.08;;
25868;SDS011;13688;53.154;18.136;2024-03-02T09:54:44;35.23;;;24.72;;
25868;SDS011;13688;53.154;18.136;2024-03-02T10:00:09;38.08;;;25.65;;
25868;SDS011;13688;53.154;18.136;2024-03-02T10:05:32;42.35;;;27.17;;
25868;SDS011;13688;53.154;18.136;2024-03-02T10:10:55;37.42;;;25.52;;
25868;SDS011;13688;53.154;18.136;2024-03-02T10:16:18;36.73;;;24.02;;
25868;SDS011;13688;53.154;18.136;2024-03-02T10:21:41;36.33;;;24.18;;
25868;SDS011;13688;53.154;18.136;2024-03-02T10:27:10;34.55;;;24.15;;
25868;SDS011;13688;53.154;18.136;2024-03-02T10:32:38;36.50;;;24.70;;
25868;SDS011;13688;53.154;18.136;2024-03-02T10:38:01;41.20;;;27.32;;
25868;SDS011;13688;53.154;18.136;2024-03-02T10:43:27;39.38;;;27.32;;
25868;SDS011;13688;53.154;18.136;2024-03-02T10:48:49;42.48;;;27.27;;
25868;SDS011;13688;53.154;18.136;2024-03-02T10:54:16;42.53;;;27.80;;
25868;SDS011;13688;53.154;18.136;2024-03-02T10:59:51;35.10;;;24.45;;
25868;SDS011;13688;53.154;18.136;2024-03-02T11:05:15;39.53;;;25.05;;
25868;SDS011;13688;53.154;18.136;2024-03-02T11:16:21;41.25;;;27.15;;
25868;SDS011;13688;53.154;18.136;2024-03-02T11:21:46;42.67;;;30.13;;
25868;SDS011;13688;53.154;18.136;2024-03-02T11:33:07;38.07;;;25.27;;
25868;SDS011;13688;53.154;18.136;2024-03-02T11:38:34;39.00;;;25.47;;
25868;SDS011;13688;53.154;18.136;2024-03-02T11:43:59;35.77;;;25.10;;
25868;SDS011;13688;53.154;18.136;2024-03-02T11:55:08;42.43;;;27.73;;
25868;SDS011;13688;53.154;18.136;2024-03-02T12:00:32;35.50;;;26.23;;
25868;SDS011;13688;53.154;18.136;2024-03-02T12:05:56;36.40;;;26.23;;
25868;SDS011;13688;53.154;18.136;2024-03-02T12:11:19;35.77;;;25.33;;
25868;SDS011;13688;53.154;18.136;2024-03-02T12:16:46;40.57;;;26.90;;
25868;SDS011;13688;53.154;18.136;2024-03-02T12:22:09;46.43;;;26.97;;
25868;SDS011;13688;53.154;18.136;2024-03-02T12:27:32;40.67;;;27.98;;
25868;SDS011;13688;53.154;18.136;2024-03-02T12:32:56;39.50;;;28.07;;
25868;SDS011;13688;53.154;18.136;2024-03-02T12:38:21;39.48;;;26.33;;
25868;SDS011;13688;53.154;18.136;2024-03-02T12:43:44;42.50;;;29.63;;
25868;SDS011;13688;53.154;18.136;2024-03-02T12:49:11;55.60;;;37.73;;
25868;SDS011;13688;53.154;18.136;2024-03-02T12:54:34;65.22;;;43.68;;
25868;SDS011;13688;53.154;18.136;2024-03-02T13:00:03;78.55;;;56.77;;
25868;SDS011;13688;53.154;18.136;2024-03-02T13:05:23;64.42;;;43.85;;
25868;SDS011;13688;53.154;18.136;2024-03-02T13:10:48;59.70;;;41.35;;
25868;SDS011;13688;53.154;18.136;2024-03-02T13:16:11;57.17;;;40.92;;
25868;SDS011;13688;53.154;18.136;2024-03-02T13:21:37;61.88;;;40.88;;
25868;SDS011;13688;53.154;18.136;2024-03-02T13:27:00;70.00;;;47.62;;
25868;SDS011;13688;53.154;18.136;2024-03-02T13:32:23;64.40;;;43.85;;
25868;SDS011;13688;53.154;18.136;2024-03-02T13:37:46;65.87;;;44.33;;
25868;SDS011;13688;53.154;18.136;2024-03-02T13:43:09;64.25;;;44.18;;
25868;SDS011;13688;53.154;18.136;2024-03-02T13:48:33;67.15;;;44.20;;
25868;SDS011;13688;53.154;18.136;2024-03-02T13:53:55;64.50;;;43.00;;
25868;SDS011;13688;53.154;18.136;2024-03-02T13:59:19;104.97;;;72.87;;
25868;SDS011;13688;53.154;18.136;2024-03-02T14:04:43;56.48;;;38.05;;
25868;SDS011;13688;53.154;18.136;2024-03-02T14:10:06;58.63;;;38.50;;
25868;SDS011;13688;53.154;18.136;2024-03-02T14:15:29;57.78;;;40.30;;
25868;SDS011;13688;53.154;18.136;2024-03-02T14:20:53;62.70;;;42.98;;
25868;SDS011;13688;53.154;18.136;2024-03-02T14:26:17;65.25;;;41.33;;
25868;SDS011;13688;53.154;18.136;2024-03-02T14:31:40;63.98;;;41.50;;
25868;SDS011;13688;53.154;18.136;2024-03-02T14:37:02;58.30;;;40.90;;
25868;SDS011;13688;53.154;18.136;2024-03-02T14:42:25;56.55;;;37.98;;
25868;SDS011;13688;53.154;18.136;2024-03-02T14:47:51;57.58;;;36.98;;
25868;SDS011;13688;53.154;18.136;2024-03-02T14:53:14;53.78;;;36.58;;
25868;SDS011;13688;53.154;18.136;2024-03-02T14:58:37;54.70;;;36.50;;
25868;SDS011;13688;53.154;18.136;2024-03-02T15:03:59;64.12;;;41.23;;
25868;SDS011;13688;53.154;18.136;2024-03-02T15:09:25;61.97;;;40.13;;
25868;SDS011;13688;53.154;18.136;2024-03-02T15:14:48;60.07;;;39.27;;
25868;SDS011;13688;53.154;18.136;2024-03-02T15:20:11;59.55;;;39.25;;
25868;SDS011;13688;53.154;18.136;2024-03-02T15:25:33;53.05;;;36.20;;
25868;SDS011;13688;53.154;18.136;2024-03-02T15:30:56;49.58;;;33.63;;
25868;SDS011;13688;53.154;18.136;2024-03-02T15:36:19;54.57;;;35.20;;
25868;SDS011;13688;53.154;18.136;2024-03-02T15:41:44;58.45;;;34.38;;
25868;SDS011;13688;53.154;18.136;2024-03-02T15:47:08;54.23;;;35.03;;
25868;SDS011;13688;53.154;18.136;2024-03-02T15:52:31;59.67;;;37.90;;
25868;SDS011;13688;53.154;18.136;2024-03-02T15:57:55;58.80;;;38.78;;
25868;SDS011;13688;53.154;18.136;2024-03-02T16:03:18;61.58;;;39.35;;
25868;SDS011;13688;53.154;18.136;2024-03-02T16:08:44;61.08;;;40.20;;
25868;SDS011;13688;53.154;18.136;2024-03-02T16:14:08;52.48;;;34.27;;
25868;SDS011;13688;53.154;18.136;2024-03-02T16:19:31;53.78;;;35.98;;
25868;SDS011;13688;53.154;18.136;2024-03-02T16:24:54;56.63;;;34.53;;
25868;SDS011;13688;53.154;18.136;2024-03-02T16:30:17;55.20;;;34.75;;
25868;SDS011;13688;53.154;18.136;2024-03-02T16:35:40;52.70;;;34.25;;
25868;SDS011;13688;53.154;18.136;2024-03-02T16:41:03;54.60;;;35.50;;
25868;SDS011;13688;53.154;18.136;2024-03-02T16:46:27;58.87;;;37.28;;
25868;SDS011;13688;53.154;18.136;2024-03-02T16:51:51;66.72;;;41.00;;
25868;SDS011;13688;53.154;18.136;2024-03-02T16:57:14;61.28;;;40.12;;
25868;SDS011;13688;53.154;18.136;2024-03-02T17:02:37;63.80;;;39.30;;
25868;SDS011;13688;53.154;18.136;2024-03-02T17:08:00;61.05;;;37.10;;
25868;SDS011;13688;53.154;18.136;2024-03-02T17:13:23;58.02;;;36.20;;
25868;SDS011;13688;53.154;18.136;2024-03-02T17:18:45;60.10;;;35.85;;
25868;SDS011;13688;53.154;18.136;2024-03-02T17:24:08;64.72;;;37.03;;
25868;SDS011;13688;53.154;18.136;2024-03-02T17:29:31;54.75;;;33.85;;
25868;SDS011;13688;53.154;18.136;2024-03-02T17:34:54;53.48;;;31.50;;
25868;SDS011;13688;53.154;18.136;2024-03-02T17:40:16;54.15;;;31.73;;
25868;SDS011;13688;53.154;18.136;2024-03-02T17:45:39;51.70;;;31.60;;
25868;SDS011;13688;53.154;18.136;2024-03-02T17:51:06;51.68;;;30.50;;
25868;SDS011;13688;53.154;18.136;2024-03-02T17:56:28;50.45;;;30.55;;
25868;SDS011;13688;53.154;18.136;2024-03-02T18:01:51;50.33;;;31.50;;
25868;SDS011;13688;53.154;18.136;2024-03-02T18:07:14;47.83;;;29.12;;
25868;SDS011;13688;53.154;18.136;2024-03-02T18:12:38;49.23;;;28.45;;
25868;SDS011;13688;53.154;18.136;2024-03-02T18:18:01;52.03;;;30.37;;
25868;SDS011;13688;53.154;18.136;2024-03-02T18:23:24;46.73;;;28.55;;
25868;SDS011;13688;53.154;18.136;2024-03-02T18:28:48;49.98;;;27.87;;
25868;SDS011;13688;53.154;18.136;2024-03-02T18:34:17;56.53;;;29.97;;
25868;SDS011;13688;53.154;18.136;2024-03-02T18:39:43;48.80;;;28.67;;
25868;SDS011;13688;53.154;18.136;2024-03-02T18:45:06;49.27;;;28.05;;
25868;SDS011;13688;53.154;18.136;2024-03-02T18:50:30;48.92;;;29.37;;
25868;SDS011;13688;53.154;18.136;2024-03-02T18:55:56;50.43;;;28.62;;
25868;SDS011;13688;53.154;18.136;2024-03-02T19:01:19;54.03;;;29.92;;
25868;SDS011;13688;53.154;18.136;2024-03-02T19:06:43;50.08;;;29.05;;
25868;SDS011;13688;53.154;18.136;2024-03-02T19:12:06;48.73;;;29.90;;
25868;SDS011;13688;53.154;18.136;2024-03-02T19:17:29;55.65;;;31.87;;
25868;SDS011;13688;53.154;18.136;2024-03-02T19:22:52;53.92;;;31.80;;
25868;SDS011;13688;53.154;18.136;2024-03-02T19:28:16;61.55;;;34.58;;
25868;SDS011;13688;53.154;18.136;2024-03-02T19:33:39;53.85;;;30.77;;
25868;SDS011;13688;53.154;18.136;2024-03-02T19:39:02;53.13;;;30.60;;
25868;SDS011;13688;53.154;18.136;2024-03-02T19:44:26;52.67;;;30.17;;
25868;SDS011;13688;53.154;18.136;2024-03-02T19:49:48;57.05;;;32.00;;
25868;SDS011;13688;53.154;18.136;2024-03-02T19:55:12;59.25;;;31.17;;
25868;SDS011;13688;53.154;18.136;2024-03-02T20:00:34;55.73;;;31.30;;
25868;SDS011;13688;53.154;18.136;2024-03-02T20:05:58;58.90;;;32.90;;
25868;SDS011;13688;53.154;18.136;2024-03-02T20:11:20;56.10;;;32.42;;
25868;SDS011;13688;53.154;18.136;2024-03-02T20:16:45;56.77;;;33.95;;
25868;SDS011;13688;53.154;18.136;2024-03-02T20:22:08;58.52;;;33.10;;
25868;SDS011;13688;53.154;18.136;2024-03-02T20:27:32;60.83;;;34.90;;
25868;SDS011;13688;53.154;18.136;2024-03-02T20:32:55;58.55;;;34.20;;
25868;SDS011;13688;53.154;18.136;2024-03-02T20:38:17;66.35;;;37.75;;
25868;SDS011;13688;53.154;18.136;2024-03-02T20:43:40;63.45;;;36.20;;
25868;SDS011;13688;53.154;18.136;2024-03-02T20:49:02;62.00;;;35.92;;
25868;SDS011;13688;53.154;18.136;2024-03-02T20:54:27;63.35;;;36.55;;
25868;SDS011;13688;53.154;18.136;2024-03-02T20:59:50;61.28;;;36.42;;
25868;SDS011;13688;53.154;18.136;2024-03-02T21:05:13;60.35;;;37.08;;
25868;SDS011;13688;53.154;18.136;2024-03-02T21:10:36;58.78;;;36.88;;
25868;SDS011;13688;53.154;18.136;2024-03-02T21:15:58;70.05;;;42.30;;
25868;SDS011;13688;53.154;18.136;2024-03-02T21:21:22;59.20;;;36.28;;
25868;SDS011;13688;53.154;18.136;2024-03-02T21:26:45;59.50;;;36.55;;
25868;SDS011;13688;53.154;18.136;2024-03-02T21:32:07;65.00;;;37.17;;
25868;SDS011;13688;53.154;18.136;2024-03-02T21:37:30;62.10;;;37.28;;
25868;SDS011;13688;53.154;18.136;2024-03-02T21:42:52;61.02;;;38.02;;
25868;SDS011;13688;53.154;18.136;2024-03-02T21:48:15;65.90;;;38.70;;
25868;SDS011;13688;53.154;18.136;2024-03-02T21:53:38;61.28;;;38.08;;
25868;SDS011;13688;53.154;18.136;2024-03-02T21:59:02;65.35;;;37.95;;
25868;SDS011;13688;53.154;18.136;2024-03-02T22:04:25;66.92;;;39.20;;
25868;SDS011;13688;53.154;18.136;2024-03-02T22:09:48;63.17;;;37.83;;
25868;SDS011;13688;53.154;18.136;2024-03-02T22:15:10;62.33;;;37.78;;
25868;SDS011;13688;53.154;18.136;2024-03-02T22:20:34;65.40;;;39.27;;
25868;SDS011;13688;53.154;18.136;2024-03-02T22:26:00;67.87;;;40.20;;
25868;SDS011;13688;53.154;18.136;2024-03-02T22:31:22;63.00;;;35.98;;
25868;SDS011;13688;53.154;18.136;2024-03-02T22:36:45;60.23;;;37.00;;
25868;SDS011;13688;53.154;18.136;2024-03-02T22:42:07;64.17;;;36.23;;
25868;SDS011;13688;53.154;18.136;2024-03-02T22:47:30;61.02;;;36.90;;
25868;SDS011;13688;53.154;18.136;2024-03-02T22:52:52;58.52;;;37.38;;
25868;SDS011;13688;53.154;18.136;2024-03-02T22:58:15;67.97;;;38.55;;
25868;SDS011;13688;53.154;18.136;2024-03-02T23:03:40;64.90;;;37.67;;
25868;SDS011;13688;53.154;18.136;2024-03-02T23:09:04;62.62;;;38.10;;
25868;SDS011;13688;53.154;18.136;2024-03-02T23:14:26;65.40;;;39.23;;
25868;SDS011;13688;53.154;18.136;2024-03-02T23:19:49;68.50;;;37.93;;
25868;SDS011;13688;53.154;18.136;2024-03-02T23:25:12;66.57;;;37.42;;
25868;SDS011;13688;53.154;18.136;2024-03-02T23:30:35;62.90;;;37.38;;
25868;SDS011;13688;53.154;18.136;2024-03-02T23:35:57;62.17;;;36.93;;
25868;SDS011;13688;53.154;18.136;2024-03-02T23:41:20;66.15;;;39.75;;
25868;SDS011;13688;53.154;18.136;2024-03-02T23:46:43;64.50;;;37.67;;
25868;SDS011;13688;53.154;18.136;2024-03-02T23:52:06;62.62;;;37.65;;
25868;SDS011;13688;53.154;18.136;2024-03-02T23:57:28;64.05;;;37.65;;
